sensor_id;sensor_type;location;lat;lon;timestamp;P1;durP1;ratioP1;P2;durP2;ratioP2
64351;SDS011;50680;52.626;-8.668;2023-07-31T00:00:04;12.50;;;4.00;;
64351;SDS011;50680;52.626;-8.668;2023-07-31T00:02:32;14.52;;;4.57;;
64351;SDS011;50680;52.626;-8.668;2023-07-31T00:04:59;19.98;;;4.40;;
64351;SDS011;50680;52.626;-8.668;2023-07-31T00:07:27;14.18;;;4.85;;
64351;SDS011;50680;52.626;-8.668;2023-07-31T00:09:53;16.67;;;4.72;;
64351;SDS011;50680;52.626;-8.668;2023-07-31T00:12:23;15.13;;;4.90;;
64351;SDS011;50680;52.626;-8.668;2023-07-31T00:14:50;10.43;;;5.03;;
64351;SDS011;50680;52.626;-8.668;2023-07-31T00:17:17;14.57;;;4.32;;
64351;SDS011;50680;52.626;-8.668;2023-07-31T00:19:44;13.77;;;4.18;;
64351;SDS011;50680;52.626;-8.668;2023-07-31T00:22:12;9.45;;;4.10;;
64351;SDS011;50680;52.626;-8.668;2023-07-31T00:24:39;11.23;;;3.83;;
64351;SDS011;50680;52.626;-8.668;2023-07-31T00:27:06;14.88;;;3.90;;
64351;SDS011;50680;52.626;-8.668;2023-07-31T00:29:33;10.70;;;3.60;;
64351;SDS011;50680;52.626;-8.668;2023-07-31T00:32:00;8.43;;;4.03;;
64351;SDS011;50680;52.626;-8.668;2023-07-31T00:34:27;14.88;;;3.33;;
64351;SDS011;50680;52.626;-8.668;2023-07-31T00:36:54;13.65;;;3.85;;
64351;SDS011;50680;52.626;-8.668;2023-07-31T00:39:21;16.08;;;3.80;;
64351;SDS011;50680;52.626;-8.668;2023-07-31T00:41:48;11.73;;;3.80;;
64351;SDS011;50680;52.626;-8.668;2023-07-31T00:44:14;11.93;;;3.78;;
64351;SDS011;50680;52.626;-8.668;2023-07-31T00:46:41;12.23;;;4.38;;
64351;SDS011;50680;52.626;-8.668;2023-07-31T00:49:09;10.45;;;3.85;;
64351;SDS011;50680;52.626;-8.668;2023-07-31T00:51:37;14.70;;;4.20;;
64351;SDS011;50680;52.626;-8.668;2023-07-31T00:54:04;17.75;;;4.68;;
64351;SDS011;50680;52.626;-8.668;2023-07-31T00:56:32;24.05;;;4.95;;
64351;SDS011;50680;52.626;-8.668;2023-07-31T00:59:00;19.25;;;5.10;;
64351;SDS011;50680;52.626;-8.668;2023-07-31T01:01:27;18.17;;;4.82;;
64351;SDS011;50680;52.626;-8.668;2023-07-31T01:03:54;14.85;;;4.57;;
64351;SDS011;50680;52.626;-8.668;2023-07-31T01:09:04;14.52;;;4.53;;
64351;SDS011;50680;52.626;-8.668;2023-07-31T01:11:39;16.90;;;4.80;;
64351;SDS011;50680;52.626;-8.668;2023-07-31T01:14:13;21.13;;;5.00;;
64351;SDS011;50680;52.626;-8.668;2023-07-31T01:16:40;20.33;;;5.20;;
64351;SDS011;50680;52.626;-8.668;2023-07-31T01:19:07;13.98;;;4.80;;
64351;SDS011;50680;52.626;-8.668;2023-07-31T01:27:43;16.63;;;5.55;;
64351;SDS011;50680;52.626;-8.668;2023-07-31T01:30:16;21.55;;;5.82;;
64351;SDS011;50680;52.626;-8.668;2023-07-31T01:32:48;25.45;;;6.03;;
64351;SDS011;50680;52.626;-8.668;2023-07-31T01:35:18;25.73;;;6.22;;
64351;SDS011;50680;52.626;-8.668;2023-07-31T01:37:45;23.08;;;6.07;;
64351;SDS011;50680;52.626;-8.668;2023-07-31T01:40:12;22.85;;;6.03;;
64351;SDS011;50680;52.626;-8.668;2023-07-31T01:42:39;23.60;;;5.40;;
64351;SDS011;50680;52.626;-8.668;2023-07-31T01:45:06;22.73;;;6.35;;
64351;SDS011;50680;52.626;-8.668;2023-07-31T01:47:33;26.33;;;6.38;;
64351;SDS011;50680;52.626;-8.668;2023-07-31T01:50:00;28.80;;;6.40;;
64351;SDS011;50680;52.626;-8.668;2023-07-31T01:52:27;35.08;;;6.78;;
64351;SDS011;50680;52.626;-8.668;2023-07-31T01:54:55;18.83;;;5.63;;
64351;SDS011;50680;52.626;-8.668;2023-07-31T01:57:22;32.58;;;6.97;;
64351;SDS011;50680;52.626;-8.668;2023-07-31T01:59:49;32.40;;;6.85;;
64351;SDS011;50680;52.626;-8.668;2023-07-31T02:02:16;33.67;;;6.50;;
64351;SDS011;50680;52.626;-8.668;2023-07-31T02:04:43;31.85;;;6.50;;
64351;SDS011;50680;52.626;-8.668;2023-07-31T02:07:09;37.55;;;6.70;;
64351;SDS011;50680;52.626;-8.668;2023-07-31T02:09:37;31.23;;;7.10;;
64351;SDS011;50680;52.626;-8.668;2023-07-31T02:12:04;28.33;;;6.63;;
64351;SDS011;50680;52.626;-8.668;2023-07-31T02:14:31;38.35;;;6.38;;
64351;SDS011;50680;52.626;-8.668;2023-07-31T02:16:58;34.20;;;6.68;;
64351;SDS011;50680;52.626;-8.668;2023-07-31T02:19:25;27.35;;;6.18;;
64351;SDS011;50680;52.626;-8.668;2023-07-31T02:21:52;27.67;;;6.05;;
64351;SDS011;50680;52.626;-8.668;2023-07-31T02:24:19;25.73;;;5.65;;
64351;SDS011;50680;52.626;-8.668;2023-07-31T02:26:45;28.58;;;5.47;;
64351;SDS011;50680;52.626;-8.668;2023-07-31T02:29:12;25.42;;;5.72;;
64351;SDS011;50680;52.626;-8.668;2023-07-31T02:31:39;29.17;;;6.13;;
64351;SDS011;50680;52.626;-8.668;2023-07-31T02:34:07;28.83;;;5.50;;
64351;SDS011;50680;52.626;-8.668;2023-07-31T02:36:34;27.00;;;5.63;;
64351;SDS011;50680;52.626;-8.668;2023-07-31T02:39:01;28.30;;;5.60;;
64351;SDS011;50680;52.626;-8.668;2023-07-31T02:41:28;27.38;;;5.60;;
64351;SDS011;50680;52.626;-8.668;2023-07-31T02:43:55;22.15;;;5.78;;
64351;SDS011;50680;52.626;-8.668;2023-07-31T02:46:22;21.02;;;5.32;;
64351;SDS011;50680;52.626;-8.668;2023-07-31T02:48:51;22.83;;;5.10;;
64351;SDS011;50680;52.626;-8.668;2023-07-31T02:51:18;28.08;;;5.43;;
64351;SDS011;50680;52.626;-8.668;2023-07-31T02:53:45;31.90;;;5.60;;
64351;SDS011;50680;52.626;-8.668;2023-07-31T02:56:12;20.73;;;4.80;;
64351;SDS011;50680;52.626;-8.668;2023-07-31T02:58:39;27.67;;;5.47;;
64351;SDS011;50680;52.626;-8.668;2023-07-31T03:01:05;19.27;;;4.70;;
64351;SDS011;50680;52.626;-8.668;2023-07-31T03:03:32;25.60;;;5.20;;
64351;SDS011;50680;52.626;-8.668;2023-07-31T03:06:00;23.13;;;4.65;;
64351;SDS011;50680;52.626;-8.668;2023-07-31T03:08:27;19.45;;;4.57;;
64351;SDS011;50680;52.626;-8.668;2023-07-31T03:10:54;20.52;;;4.85;;
64351;SDS011;50680;52.626;-8.668;2023-07-31T03:13:21;19.38;;;4.63;;
64351;SDS011;50680;52.626;-8.668;2023-07-31T03:15:48;19.50;;;4.90;;
64351;SDS011;50680;52.626;-8.668;2023-07-31T03:18:15;26.98;;;5.20;;
64351;SDS011;50680;52.626;-8.668;2023-07-31T03:20:42;16.75;;;4.22;;
64351;SDS011;50680;52.626;-8.668;2023-07-31T03:23:10;16.20;;;4.45;;
64351;SDS011;50680;52.626;-8.668;2023-07-31T03:25:37;17.20;;;4.10;;
64351;SDS011;50680;52.626;-8.668;2023-07-31T03:28:04;23.08;;;4.20;;
64351;SDS011;50680;52.626;-8.668;2023-07-31T03:30:31;21.08;;;4.20;;
64351;SDS011;50680;52.626;-8.668;2023-07-31T03:32:58;17.35;;;4.00;;
64351;SDS011;50680;52.626;-8.668;2023-07-31T03:35:25;17.27;;;3.88;;
64351;SDS011;50680;52.626;-8.668;2023-07-31T03:37:52;20.52;;;4.22;;
64351;SDS011;50680;52.626;-8.668;2023-07-31T03:40:19;19.17;;;4.18;;
64351;SDS011;50680;52.626;-8.668;2023-07-31T03:42:46;12.10;;;4.22;;
64351;SDS011;50680;52.626;-8.668;2023-07-31T03:45:13;16.73;;;4.43;;
64351;SDS011;50680;52.626;-8.668;2023-07-31T03:47:40;9.13;;;3.40;;
64351;SDS011;50680;52.626;-8.668;2023-07-31T03:50:07;11.25;;;3.70;;
64351;SDS011;50680;52.626;-8.668;2023-07-31T03:52:34;15.38;;;3.65;;
64351;SDS011;50680;52.626;-8.668;2023-07-31T03:55:01;23.00;;;4.10;;
64351;SDS011;50680;52.626;-8.668;2023-07-31T03:57:28;14.98;;;3.58;;
64351;SDS011;50680;52.626;-8.668;2023-07-31T03:59:55;17.05;;;4.00;;
64351;SDS011;50680;52.626;-8.668;2023-07-31T04:02:22;17.60;;;4.05;;
64351;SDS011;50680;52.626;-8.668;2023-07-31T04:04:49;17.80;;;3.80;;
64351;SDS011;50680;52.626;-8.668;2023-07-31T04:07:15;20.48;;;4.60;;
64351;SDS011;50680;52.626;-8.668;2023-07-31T04:09:42;16.13;;;4.22;;
64351;SDS011;50680;52.626;-8.668;2023-07-31T04:12:09;13.45;;;3.58;;
64351;SDS011;50680;52.626;-8.668;2023-07-31T04:14:37;18.60;;;3.88;;
64351;SDS011;50680;52.626;-8.668;2023-07-31T04:17:04;24.25;;;4.20;;
64351;SDS011;50680;52.626;-8.668;2023-07-31T04:19:31;14.90;;;4.18;;
64351;SDS011;50680;52.626;-8.668;2023-07-31T04:21:58;13.23;;;4.57;;
64351;SDS011;50680;52.626;-8.668;2023-07-31T04:24:25;18.77;;;4.43;;
64351;SDS011;50680;52.626;-8.668;2023-07-31T04:26:52;13.65;;;3.80;;
64351;SDS011;50680;52.626;-8.668;2023-07-31T04:29:19;16.05;;;4.00;;
64351;SDS011;50680;52.626;-8.668;2023-07-31T04:31:47;14.80;;;3.90;;
64351;SDS011;50680;52.626;-8.668;2023-07-31T04:34:15;16.75;;;4.50;;
64351;SDS011;50680;52.626;-8.668;2023-07-31T04:36:41;24.13;;;5.40;;
64351;SDS011;50680;52.626;-8.668;2023-07-31T04:39:08;17.65;;;4.55;;
64351;SDS011;50680;52.626;-8.668;2023-07-31T04:41:35;23.80;;;5.30;;
64351;SDS011;50680;52.626;-8.668;2023-07-31T04:44:02;25.63;;;5.50;;
64351;SDS011;50680;52.626;-8.668;2023-07-31T04:46:32;29.25;;;6.45;;
64351;SDS011;50680;52.626;-8.668;2023-07-31T04:49:00;20.98;;;5.47;;
64351;SDS011;50680;52.626;-8.668;2023-07-31T04:51:27;27.40;;;5.78;;
64351;SDS011;50680;52.626;-8.668;2023-07-31T04:53:54;32.63;;;6.53;;
64351;SDS011;50680;52.626;-8.668;2023-07-31T04:56:20;34.75;;;6.70;;
64351;SDS011;50680;52.626;-8.668;2023-07-31T04:58:47;35.00;;;6.93;;
64351;SDS011;50680;52.626;-8.668;2023-07-31T05:01:14;43.33;;;7.95;;
64351;SDS011;50680;52.626;-8.668;2023-07-31T05:03:41;26.23;;;6.65;;
64351;SDS011;50680;52.626;-8.668;2023-07-31T05:06:08;37.03;;;6.78;;
64351;SDS011;50680;52.626;-8.668;2023-07-31T05:08:35;37.53;;;8.30;;
64351;SDS011;50680;52.626;-8.668;2023-07-31T05:11:02;30.10;;;6.97;;
64351;SDS011;50680;52.626;-8.668;2023-07-31T05:13:29;36.65;;;7.35;;
64351;SDS011;50680;52.626;-8.668;2023-07-31T05:15:56;36.53;;;7.50;;
64351;SDS011;50680;52.626;-8.668;2023-07-31T05:18:26;39.22;;;8.55;;
64351;SDS011;50680;52.626;-8.668;2023-07-31T05:20:53;31.15;;;7.18;;
64351;SDS011;50680;52.626;-8.668;2023-07-31T05:23:20;44.45;;;7.97;;
64351;SDS011;50680;52.626;-8.668;2023-07-31T05:25:47;38.92;;;6.80;;
64351;SDS011;50680;52.626;-8.668;2023-07-31T05:28:14;37.83;;;7.40;;
64351;SDS011;50680;52.626;-8.668;2023-07-31T05:30:41;29.85;;;6.97;;
64351;SDS011;50680;52.626;-8.668;2023-07-31T05:33:08;35.75;;;7.57;;
64351;SDS011;50680;52.626;-8.668;2023-07-31T05:35:37;41.78;;;7.68;;
64351;SDS011;50680;52.626;-8.668;2023-07-31T05:38:05;42.80;;;7.32;;
64351;SDS011;50680;52.626;-8.668;2023-07-31T05:40:32;36.83;;;7.28;;
64351;SDS011;50680;52.626;-8.668;2023-07-31T05:43:00;33.42;;;8.00;;
64351;SDS011;50680;52.626;-8.668;2023-07-31T05:45:27;42.15;;;8.48;;
64351;SDS011;50680;52.626;-8.668;2023-07-31T05:47:54;44.80;;;8.13;;
64351;SDS011;50680;52.626;-8.668;2023-07-31T05:50:21;33.00;;;7.38;;
64351;SDS011;50680;52.626;-8.668;2023-07-31T05:52:47;45.97;;;8.35;;
64351;SDS011;50680;52.626;-8.668;2023-07-31T05:55:14;49.97;;;8.48;;
64351;SDS011;50680;52.626;-8.668;2023-07-31T05:57:42;41.83;;;8.15;;
64351;SDS011;50680;52.626;-8.668;2023-07-31T06:00:12;39.92;;;7.53;;
64351;SDS011;50680;52.626;-8.668;2023-07-31T06:02:40;44.00;;;7.85;;
64351;SDS011;50680;52.626;-8.668;2023-07-31T06:05:07;35.85;;;6.32;;
64351;SDS011;50680;52.626;-8.668;2023-07-31T06:07:34;36.90;;;7.63;;
64351;SDS011;50680;52.626;-8.668;2023-07-31T06:10:01;45.28;;;7.93;;
64351;SDS011;50680;52.626;-8.668;2023-07-31T06:12:32;38.55;;;7.75;;
64351;SDS011;50680;52.626;-8.668;2023-07-31T06:14:59;47.75;;;7.90;;
64351;SDS011;50680;52.626;-8.668;2023-07-31T06:17:27;35.85;;;7.43;;
64351;SDS011;50680;52.626;-8.668;2023-07-31T06:19:54;41.33;;;9.05;;
64351;SDS011;50680;52.626;-8.668;2023-07-31T06:22:21;42.55;;;8.07;;
64351;SDS011;50680;52.626;-8.668;2023-07-31T06:24:48;45.63;;;8.13;;
64351;SDS011;50680;52.626;-8.668;2023-07-31T06:27:15;39.22;;;6.88;;
64351;SDS011;50680;52.626;-8.668;2023-07-31T06:29:42;42.28;;;8.00;;
64351;SDS011;50680;52.626;-8.668;2023-07-31T06:32:09;43.72;;;7.55;;
64351;SDS011;50680;52.626;-8.668;2023-07-31T06:34:36;35.15;;;6.97;;
64351;SDS011;50680;52.626;-8.668;2023-07-31T06:37:03;38.03;;;7.88;;
64351;SDS011;50680;52.626;-8.668;2023-07-31T06:39:30;48.83;;;7.30;;
64351;SDS011;50680;52.626;-8.668;2023-07-31T06:41:57;46.03;;;6.85;;
64351;SDS011;50680;52.626;-8.668;2023-07-31T06:44:24;54.35;;;7.85;;
64351;SDS011;50680;52.626;-8.668;2023-07-31T06:46:51;37.53;;;7.63;;
64351;SDS011;50680;52.626;-8.668;2023-07-31T06:49:18;39.00;;;7.65;;
64351;SDS011;50680;52.626;-8.668;2023-07-31T06:51:45;48.97;;;6.70;;
64351;SDS011;50680;52.626;-8.668;2023-07-31T06:54:12;33.70;;;6.70;;
64351;SDS011;50680;52.626;-8.668;2023-07-31T06:56:39;26.20;;;5.10;;
64351;SDS011;50680;52.626;-8.668;2023-07-31T06:59:06;39.53;;;6.53;;
64351;SDS011;50680;52.626;-8.668;2023-07-31T07:01:34;33.25;;;7.07;;
64351;SDS011;50680;52.626;-8.668;2023-07-31T07:04:01;38.92;;;7.18;;
64351;SDS011;50680;52.626;-8.668;2023-07-31T07:06:28;42.38;;;6.70;;
64351;SDS011;50680;52.626;-8.668;2023-07-31T07:08:55;35.03;;;7.32;;
64351;SDS011;50680;52.626;-8.668;2023-07-31T07:11:22;29.52;;;5.95;;
64351;SDS011;50680;52.626;-8.668;2023-07-31T07:13:49;26.38;;;5.90;;
64351;SDS011;50680;52.626;-8.668;2023-07-31T07:16:15;26.90;;;5.82;;
64351;SDS011;50680;52.626;-8.668;2023-07-31T07:18:42;24.73;;;4.95;;
64351;SDS011;50680;52.626;-8.668;2023-07-31T07:21:28;38.10;;;6.55;;
64351;SDS011;50680;52.626;-8.668;2023-07-31T07:23:54;35.38;;;6.22;;
64351;SDS011;50680;52.626;-8.668;2023-07-31T07:26:22;25.13;;;4.93;;
64351;SDS011;50680;52.626;-8.668;2023-07-31T07:28:48;31.65;;;6.50;;
64351;SDS011;50680;52.626;-8.668;2023-07-31T07:31:15;33.20;;;5.20;;
64351;SDS011;50680;52.626;-8.668;2023-07-31T07:33:43;32.33;;;5.28;;
64351;SDS011;50680;52.626;-8.668;2023-07-31T07:36:10;34.63;;;6.30;;
64351;SDS011;50680;52.626;-8.668;2023-07-31T07:38:39;35.03;;;5.82;;
64351;SDS011;50680;52.626;-8.668;2023-07-31T07:41:06;32.78;;;5.47;;
64351;SDS011;50680;52.626;-8.668;2023-07-31T07:43:32;27.15;;;5.53;;
64351;SDS011;50680;52.626;-8.668;2023-07-31T07:45:59;28.85;;;6.07;;
64351;SDS011;50680;52.626;-8.668;2023-07-31T07:48:26;26.63;;;5.00;;
64351;SDS011;50680;52.626;-8.668;2023-07-31T07:50:53;31.85;;;5.35;;
64351;SDS011;50680;52.626;-8.668;2023-07-31T07:53:20;24.48;;;5.28;;
64351;SDS011;50680;52.626;-8.668;2023-07-31T07:55:47;28.77;;;5.13;;
64351;SDS011;50680;52.626;-8.668;2023-07-31T07:58:14;20.08;;;4.53;;
64351;SDS011;50680;52.626;-8.668;2023-07-31T08:00:41;28.58;;;4.90;;
64351;SDS011;50680;52.626;-8.668;2023-07-31T08:03:08;35.25;;;6.68;;
64351;SDS011;50680;52.626;-8.668;2023-07-31T08:05:36;24.45;;;5.07;;
64351;SDS011;50680;52.626;-8.668;2023-07-31T08:08:03;23.10;;;5.53;;
64351;SDS011;50680;52.626;-8.668;2023-07-31T08:10:30;25.95;;;5.22;;
64351;SDS011;50680;52.626;-8.668;2023-07-31T08:12:57;23.48;;;5.57;;
64351;SDS011;50680;52.626;-8.668;2023-07-31T08:15:24;29.98;;;4.88;;
64351;SDS011;50680;52.626;-8.668;2023-07-31T08:17:51;27.63;;;5.70;;
64351;SDS011;50680;52.626;-8.668;2023-07-31T08:20:18;23.77;;;4.82;;
64351;SDS011;50680;52.626;-8.668;2023-07-31T08:22:45;24.08;;;5.82;;
64351;SDS011;50680;52.626;-8.668;2023-07-31T08:25:12;28.40;;;5.85;;
64351;SDS011;50680;52.626;-8.668;2023-07-31T08:27:42;30.70;;;5.53;;
64351;SDS011;50680;52.626;-8.668;2023-07-31T08:30:11;20.93;;;4.97;;
64351;SDS011;50680;52.626;-8.668;2023-07-31T08:32:38;27.58;;;5.40;;
64351;SDS011;50680;52.626;-8.668;2023-07-31T08:35:05;22.70;;;5.60;;
64351;SDS011;50680;52.626;-8.668;2023-07-31T08:37:32;21.38;;;4.45;;
64351;SDS011;50680;52.626;-8.668;2023-07-31T08:39:59;31.27;;;6.32;;
64351;SDS011;50680;52.626;-8.668;2023-07-31T08:42:26;24.40;;;5.00;;
64351;SDS011;50680;52.626;-8.668;2023-07-31T08:44:56;24.65;;;4.47;;
64351;SDS011;50680;52.626;-8.668;2023-07-31T08:47:23;24.67;;;4.85;;
64351;SDS011;50680;52.626;-8.668;2023-07-31T08:49:50;19.38;;;4.20;;
64351;SDS011;50680;52.626;-8.668;2023-07-31T08:52:19;23.00;;;4.85;;
64351;SDS011;50680;52.626;-8.668;2023-07-31T08:54:46;25.50;;;4.53;;
64351;SDS011;50680;52.626;-8.668;2023-07-31T08:57:13;26.60;;;5.50;;
64351;SDS011;50680;52.626;-8.668;2023-07-31T08:59:41;24.45;;;4.38;;
64351;SDS011;50680;52.626;-8.668;2023-07-31T09:02:09;32.13;;;5.25;;
64351;SDS011;50680;52.626;-8.668;2023-07-31T09:04:38;23.83;;;4.78;;
64351;SDS011;50680;52.626;-8.668;2023-07-31T09:07:05;22.42;;;4.85;;
64351;SDS011;50680;52.626;-8.668;2023-07-31T09:09:32;23.50;;;4.93;;
64351;SDS011;50680;52.626;-8.668;2023-07-31T09:11:59;21.30;;;4.07;;
64351;SDS011;50680;52.626;-8.668;2023-07-31T09:14:27;19.50;;;4.10;;
64351;SDS011;50680;52.626;-8.668;2023-07-31T09:16:55;21.33;;;3.88;;
64351;SDS011;50680;52.626;-8.668;2023-07-31T09:19:26;20.13;;;3.70;;
64351;SDS011;50680;52.626;-8.668;2023-07-31T09:21:56;24.67;;;4.20;;
64351;SDS011;50680;52.626;-8.668;2023-07-31T09:24:29;20.90;;;4.00;;
64351;SDS011;50680;52.626;-8.668;2023-07-31T09:26:58;26.60;;;4.07;;
64351;SDS011;50680;52.626;-8.668;2023-07-31T09:29:26;22.38;;;4.88;;
64351;SDS011;50680;52.626;-8.668;2023-07-31T09:31:54;19.02;;;3.90;;
64351;SDS011;50680;52.626;-8.668;2023-07-31T09:34:28;26.65;;;3.92;;
64351;SDS011;50680;52.626;-8.668;2023-07-31T09:37:01;17.52;;;4.35;;
64351;SDS011;50680;52.626;-8.668;2023-07-31T09:39:29;18.17;;;3.63;;
64351;SDS011;50680;52.626;-8.668;2023-07-31T09:41:56;24.50;;;4.35;;
64351;SDS011;50680;52.626;-8.668;2023-07-31T09:44:37;18.58;;;4.13;;
64351;SDS011;50680;52.626;-8.668;2023-07-31T09:47:20;12.85;;;3.85;;
64351;SDS011;50680;52.626;-8.668;2023-07-31T09:49:52;16.25;;;3.78;;
64351;SDS011;50680;52.626;-8.668;2023-07-31T09:52:19;29.02;;;3.92;;
64351;SDS011;50680;52.626;-8.668;2023-07-31T09:54:46;21.00;;;3.65;;
64351;SDS011;50680;52.626;-8.668;2023-07-31T09:57:13;13.25;;;3.08;;
64351;SDS011;50680;52.626;-8.668;2023-07-31T09:59:43;22.55;;;3.22;;
64351;SDS011;50680;52.626;-8.668;2023-07-31T10:02:13;17.75;;;3.47;;
64351;SDS011;50680;52.626;-8.668;2023-07-31T10:04:47;19.45;;;3.72;;
64351;SDS011;50680;52.626;-8.668;2023-07-31T10:07:17;22.40;;;3.80;;
64351;SDS011;50680;52.626;-8.668;2023-07-31T10:09:45;19.58;;;4.05;;
64351;SDS011;50680;52.626;-8.668;2023-07-31T10:12:15;15.73;;;3.67;;
64351;SDS011;50680;52.626;-8.668;2023-07-31T10:14:46;16.50;;;3.35;;
64351;SDS011;50680;52.626;-8.668;2023-07-31T10:17:13;13.35;;;3.30;;
64351;SDS011;50680;52.626;-8.668;2023-07-31T10:19:41;23.70;;;3.90;;
64351;SDS011;50680;52.626;-8.668;2023-07-31T10:22:10;22.15;;;3.88;;
64351;SDS011;50680;52.626;-8.668;2023-07-31T10:24:39;14.05;;;3.15;;
64351;SDS011;50680;52.626;-8.668;2023-07-31T10:27:06;19.33;;;2.70;;
64351;SDS011;50680;52.626;-8.668;2023-07-31T10:29:34;17.65;;;3.38;;
64351;SDS011;50680;52.626;-8.668;2023-07-31T10:32:01;15.35;;;3.05;;
64351;SDS011;50680;52.626;-8.668;2023-07-31T10:39:45;16.17;;;3.03;;
64351;SDS011;50680;52.626;-8.668;2023-07-31T10:42:32;20.88;;;3.97;;
64351;SDS011;50680;52.626;-8.668;2023-07-31T10:45:04;17.45;;;2.95;;
64351;SDS011;50680;52.626;-8.668;2023-07-31T10:47:36;15.63;;;3.30;;
64351;SDS011;50680;52.626;-8.668;2023-07-31T10:50:16;19.90;;;3.33;;
64351;SDS011;50680;52.626;-8.668;2023-07-31T10:52:48;18.73;;;3.13;;
64351;SDS011;50680;52.626;-8.668;2023-07-31T10:58:12;16.95;;;3.78;;
64351;SDS011;50680;52.626;-8.668;2023-07-31T11:00:41;19.17;;;3.63;;
64351;SDS011;50680;52.626;-8.668;2023-07-31T11:03:16;20.45;;;3.00;;
64351;SDS011;50680;52.626;-8.668;2023-07-31T11:08:35;15.10;;;2.70;;
64351;SDS011;50680;52.626;-8.668;2023-07-31T11:11:08;8.02;;;2.45;;
64351;SDS011;50680;52.626;-8.668;2023-07-31T11:18:35;13.63;;;3.05;;
64351;SDS011;50680;52.626;-8.668;2023-07-31T11:21:03;17.70;;;2.78;;
64351;SDS011;50680;52.626;-8.668;2023-07-31T11:23:30;19.33;;;4.00;;
64351;SDS011;50680;52.626;-8.668;2023-07-31T11:26:00;18.13;;;2.95;;
64351;SDS011;50680;52.626;-8.668;2023-07-31T11:28:31;14.45;;;3.30;;
64351;SDS011;50680;52.626;-8.668;2023-07-31T11:31:03;15.30;;;3.58;;
64351;SDS011;50680;52.626;-8.668;2023-07-31T11:33:31;12.43;;;2.72;;
64351;SDS011;50680;52.626;-8.668;2023-07-31T11:35:58;12.73;;;3.33;;
64351;SDS011;50680;52.626;-8.668;2023-07-31T11:38:25;8.57;;;2.38;;
64351;SDS011;50680;52.626;-8.668;2023-07-31T11:40:55;14.85;;;3.25;;
64351;SDS011;50680;52.626;-8.668;2023-07-31T11:43:23;16.23;;;2.72;;
64351;SDS011;50680;52.626;-8.668;2023-07-31T11:45:52;10.18;;;2.40;;
64351;SDS011;50680;52.626;-8.668;2023-07-31T11:50:51;12.65;;;3.58;;
64351;SDS011;50680;52.626;-8.668;2023-07-31T11:53:20;11.88;;;2.92;;
64351;SDS011;50680;52.626;-8.668;2023-07-31T11:55:53;13.27;;;3.05;;
64351;SDS011;50680;52.626;-8.668;2023-07-31T11:58:21;10.73;;;2.38;;
64351;SDS011;50680;52.626;-8.668;2023-07-31T12:00:48;11.75;;;2.83;;
64351;SDS011;50680;52.626;-8.668;2023-07-31T12:03:16;9.45;;;2.50;;
64351;SDS011;50680;52.626;-8.668;2023-07-31T12:05:43;15.55;;;2.85;;
64351;SDS011;50680;52.626;-8.668;2023-07-31T12:08:11;15.13;;;2.50;;
64351;SDS011;50680;52.626;-8.668;2023-07-31T12:10:38;11.10;;;2.65;;
64351;SDS011;50680;52.626;-8.668;2023-07-31T12:13:10;16.63;;;3.00;;
64351;SDS011;50680;52.626;-8.668;2023-07-31T12:15:42;11.57;;;3.28;;
64351;SDS011;50680;52.626;-8.668;2023-07-31T12:18:14;11.35;;;2.50;;
64351;SDS011;50680;52.626;-8.668;2023-07-31T12:20:46;12.30;;;2.40;;
64351;SDS011;50680;52.626;-8.668;2023-07-31T12:23:20;15.35;;;2.67;;
64351;SDS011;50680;52.626;-8.668;2023-07-31T12:28:44;10.38;;;2.72;;
64351;SDS011;50680;52.626;-8.668;2023-07-31T12:31:16;10.73;;;2.35;;
64351;SDS011;50680;52.626;-8.668;2023-07-31T12:33:46;11.77;;;2.20;;
64351;SDS011;50680;52.626;-8.668;2023-07-31T12:36:17;17.80;;;2.72;;
64351;SDS011;50680;52.626;-8.668;2023-07-31T12:38:52;11.40;;;2.50;;
64351;SDS011;50680;52.626;-8.668;2023-07-31T12:41:19;12.43;;;2.85;;
64351;SDS011;50680;52.626;-8.668;2023-07-31T12:43:46;9.77;;;2.40;;
64351;SDS011;50680;52.626;-8.668;2023-07-31T12:46:13;9.60;;;2.20;;
64351;SDS011;50680;52.626;-8.668;2023-07-31T12:48:41;11.30;;;2.28;;
64351;SDS011;50680;52.626;-8.668;2023-07-31T12:51:08;11.02;;;2.08;;
64351;SDS011;50680;52.626;-8.668;2023-07-31T12:53:35;12.63;;;2.80;;
64351;SDS011;50680;52.626;-8.668;2023-07-31T12:56:02;12.15;;;2.35;;
64351;SDS011;50680;52.626;-8.668;2023-07-31T12:58:29;13.77;;;2.80;;
64351;SDS011;50680;52.626;-8.668;2023-07-31T13:00:57;13.55;;;2.53;;
64351;SDS011;50680;52.626;-8.668;2023-07-31T13:03:24;9.27;;;2.13;;
64351;SDS011;50680;52.626;-8.668;2023-07-31T13:05:51;12.00;;;2.25;;
64351;SDS011;50680;52.626;-8.668;2023-07-31T13:08:19;9.13;;;2.67;;
64351;SDS011;50680;52.626;-8.668;2023-07-31T13:10:46;13.32;;;2.85;;
64351;SDS011;50680;52.626;-8.668;2023-07-31T13:13:13;13.55;;;2.13;;
64351;SDS011;50680;52.626;-8.668;2023-07-31T13:15:41;10.70;;;1.60;;
64351;SDS011;50680;52.626;-8.668;2023-07-31T13:18:08;6.97;;;2.15;;
64351;SDS011;50680;52.626;-8.668;2023-07-31T13:20:35;11.70;;;2.53;;
64351;SDS011;50680;52.626;-8.668;2023-07-31T13:23:02;9.45;;;2.45;;
64351;SDS011;50680;52.626;-8.668;2023-07-31T13:25:29;13.20;;;2.50;;
64351;SDS011;50680;52.626;-8.668;2023-07-31T13:27:56;12.02;;;3.13;;
64351;SDS011;50680;52.626;-8.668;2023-07-31T13:30:27;13.68;;;2.80;;
64351;SDS011;50680;52.626;-8.668;2023-07-31T13:32:54;15.20;;;3.03;;
64351;SDS011;50680;52.626;-8.668;2023-07-31T13:35:21;15.73;;;3.03;;
64351;SDS011;50680;52.626;-8.668;2023-07-31T13:37:48;17.65;;;2.47;;
64351;SDS011;50680;52.626;-8.668;2023-07-31T13:40:15;13.23;;;2.65;;
64351;SDS011;50680;52.626;-8.668;2023-07-31T13:42:42;12.88;;;2.78;;
64351;SDS011;50680;52.626;-8.668;2023-07-31T13:45:09;12.48;;;2.22;;
64351;SDS011;50680;52.626;-8.668;2023-07-31T13:47:36;8.02;;;2.50;;
64351;SDS011;50680;52.626;-8.668;2023-07-31T13:50:04;9.68;;;2.80;;
64351;SDS011;50680;52.626;-8.668;2023-07-31T13:52:31;10.52;;;2.28;;
64351;SDS011;50680;52.626;-8.668;2023-07-31T13:54:58;10.77;;;2.30;;
64351;SDS011;50680;52.626;-8.668;2023-07-31T13:57:25;16.75;;;2.30;;
64351;SDS011;50680;52.626;-8.668;2023-07-31T13:59:52;9.38;;;2.22;;
64351;SDS011;50680;52.626;-8.668;2023-07-31T14:02:19;13.38;;;2.40;;
64351;SDS011;50680;52.626;-8.668;2023-07-31T14:04:46;16.30;;;2.83;;
64351;SDS011;50680;52.626;-8.668;2023-07-31T14:07:13;11.60;;;2.38;;
64351;SDS011;50680;52.626;-8.668;2023-07-31T14:09:40;12.48;;;2.65;;
64351;SDS011;50680;52.626;-8.668;2023-07-31T14:12:07;22.13;;;2.72;;
64351;SDS011;50680;52.626;-8.668;2023-07-31T14:14:34;14.05;;;2.72;;
64351;SDS011;50680;52.626;-8.668;2023-07-31T14:17:01;15.73;;;3.08;;
64351;SDS011;50680;52.626;-8.668;2023-07-31T14:19:28;15.80;;;2.72;;
64351;SDS011;50680;52.626;-8.668;2023-07-31T14:21:57;21.70;;;3.20;;
64351;SDS011;50680;52.626;-8.668;2023-07-31T14:24:36;18.75;;;2.90;;
64351;SDS011;50680;52.626;-8.668;2023-07-31T14:27:03;13.73;;;2.97;;
64351;SDS011;50680;52.626;-8.668;2023-07-31T14:29:31;18.23;;;2.97;;
64351;SDS011;50680;52.626;-8.668;2023-07-31T14:31:58;24.35;;;3.13;;
64351;SDS011;50680;52.626;-8.668;2023-07-31T14:34:26;14.65;;;2.58;;
64351;SDS011;50680;52.626;-8.668;2023-07-31T14:36:53;14.00;;;2.83;;
64351;SDS011;50680;52.626;-8.668;2023-07-31T14:39:20;15.95;;;2.97;;
64351;SDS011;50680;52.626;-8.668;2023-07-31T14:41:47;17.02;;;2.92;;
64351;SDS011;50680;52.626;-8.668;2023-07-31T14:44:14;20.83;;;3.28;;
64351;SDS011;50680;52.626;-8.668;2023-07-31T14:46:42;15.40;;;2.97;;
64351;SDS011;50680;52.626;-8.668;2023-07-31T14:49:09;18.33;;;3.47;;
64351;SDS011;50680;52.626;-8.668;2023-07-31T14:51:36;17.55;;;3.45;;
64351;SDS011;50680;52.626;-8.668;2023-07-31T14:54:03;15.60;;;3.10;;